sensor_id;sensor_type;location;lat;lon;timestamp;temperature;humidity
70089;HTU21D;57460;47.134;19.888;2023-04-03T00:01:16;9.89;66.52
70089;HTU21D;57460;47.134;19.888;2023-04-03T00:03:42;9.86;66.86
70089;HTU21D;57460;47.134;19.888;2023-04-03T00:06:08;9.92;67.17
70089;HTU21D;57460;47.134;19.888;2023-04-03T00:08:36;9.79;68.03
70089;HTU21D;57460;47.134;19.888;2023-04-03T00:11:03;9.57;69.42
70089;HTU21D;57460;47.134;19.888;2023-04-03T00:13:29;9.68;68.73
70089;HTU21D;57460;47.134;19.888;2023-04-03T00:15:56;9.64;69.01
70089;HTU21D;57460;47.134;19.888;2023-04-03T00:18:22;9.55;69.18
70089;HTU21D;57460;47.134;19.888;2023-04-03T00:20:48;9.41;70.00
70089;HTU21D;57460;47.134;19.888;2023-04-03T00:23:15;9.46;69.34
70089;HTU21D;57460;47.134;19.888;2023-04-03T00:25:41;9.49;69.30
70089;HTU21D;57460;47.134;19.888;2023-04-03T00:28:07;9.57;69.42
70089;HTU21D;57460;47.134;19.888;2023-04-03T00:30:33;9.37;70.29
70089;HTU21D;57460;47.134;19.888;2023-04-03T00:32:59;9.35;70.62
70089;HTU21D;57460;47.134;19.888;2023-04-03T00:35:26;9.25;71.06
70089;HTU21D;57460;47.134;19.888;2023-04-03T00:37:53;9.21;71.46
70089;HTU21D;57460;47.134;19.888;2023-04-03T00:40:22;9.24;71.34
70089;HTU21D;57460;47.134;19.888;2023-04-03T00:42:52;9.22;71.93
70089;HTU21D;57460;47.134;19.888;2023-04-03T00:45:28;9.22;71.43
70089;HTU21D;57460;47.134;19.888;2023-04-03T00:47:55;9.29;70.98
70089;HTU21D;57460;47.134;19.888;2023-04-03T00:50:26;9.24;70.72
70089;HTU21D;57460;47.134;19.888;2023-04-03T00:52:53;9.14;71.05
70089;HTU21D;57460;47.134;19.888;2023-04-03T00:55:20;9.19;71.35
70089;HTU21D;57460;47.134;19.888;2023-04-03T00:57:47;9.08;71.41
70089;HTU21D;57460;47.134;19.888;2023-04-03T01:00:17;9.17;71.28
70089;HTU21D;57460;47.134;19.888;2023-04-03T01:02:44;9.21;71.27
70089;HTU21D;57460;47.134;19.888;2023-04-03T01:05:11;9.26;71.00
70089;HTU21D;57460;47.134;19.888;2023-04-03T01:07:38;9.31;70.81
70089;HTU21D;57460;47.134;19.888;2023-04-03T01:10:09;9.38;70.71
70089;HTU21D;57460;47.134;19.888;2023-04-03T01:12:38;9.36;70.90
70089;HTU21D;57460;47.134;19.888;2023-04-03T01:15:11;9.38;70.90
70089;HTU21D;57460;47.134;19.888;2023-04-03T01:17:41;9.36;71.35
70089;HTU21D;57460;47.134;19.888;2023-04-03T01:25:27;9.53;70.99
70089;HTU21D;57460;47.134;19.888;2023-04-03T01:27:53;9.52;71.20
70089;HTU21D;57460;47.134;19.888;2023-04-03T01:30:23;9.54;71.25
70089;HTU21D;57460;47.134;19.888;2023-04-03T01:32:50;9.56;71.24
70089;HTU21D;57460;47.134;19.888;2023-04-03T01:35:16;9.57;71.15
70089;HTU21D;57460;47.134;19.888;2023-04-03T01:37:42;9.56;71.32
70089;HTU21D;57460;47.134;19.888;2023-04-03T01:40:08;9.60;71.26
70089;HTU21D;57460;47.134;19.888;2023-04-03T01:42:34;9.60;71.38
70089;HTU21D;57460;47.134;19.888;2023-04-03T01:45:00;9.61;71.38
70089;HTU21D;57460;47.134;19.888;2023-04-03T01:47:25;9.64;71.32
70089;HTU21D;57460;47.134;19.888;2023-04-03T01:49:51;9.67;71.21
70089;HTU21D;57460;47.134;19.888;2023-04-03T01:52:17;9.79;70.51
70089;HTU21D;57460;47.134;19.888;2023-04-03T01:54:43;9.88;70.03
70089;HTU21D;57460;47.134;19.888;2023-04-03T01:57:08;9.83;69.95
70089;HTU21D;57460;47.134;19.888;2023-04-03T01:59:34;9.75;70.31
70089;HTU21D;57460;47.134;19.888;2023-04-03T02:02:00;9.81;69.70
70089;HTU21D;57460;47.134;19.888;2023-04-03T02:04:26;9.63;70.81
70089;HTU21D;57460;47.134;19.888;2023-04-03T02:06:52;9.53;70.48
70089;HTU21D;57460;47.134;19.888;2023-04-03T02:09:17;9.63;70.01
70089;HTU21D;57460;47.134;19.888;2023-04-03T02:11:43;9.67;69.60
70089;HTU21D;57460;47.134;19.888;2023-04-03T02:14:09;9.53;70.32
70089;HTU21D;57460;47.134;19.888;2023-04-03T02:16:35;9.52;70.33
70089;HTU21D;57460;47.134;19.888;2023-04-03T02:19:03;9.53;70.27
70089;HTU21D;57460;47.134;19.888;2023-04-03T02:21:29;9.33;71.30
70089;HTU21D;57460;47.134;19.888;2023-04-03T02:23:55;9.30;71.19
70089;HTU21D;57460;47.134;19.888;2023-04-03T02:26:22;9.25;71.34
70089;HTU21D;57460;47.134;19.888;2023-04-03T02:28:47;9.37;70.71
70089;HTU21D;57460;47.134;19.888;2023-04-03T02:31:13;9.30;70.87
70089;HTU21D;57460;47.134;19.888;2023-04-03T02:33:40;9.35;70.91
70089;HTU21D;57460;47.134;19.888;2023-04-03T02:36:07;9.16;72.64
70089;HTU21D;57460;47.134;19.888;2023-04-03T02:38:39;9.18;71.74
70089;HTU21D;57460;47.134;19.888;2023-04-03T02:41:08;9.19;71.84
70089;HTU21D;57460;47.134;19.888;2023-04-03T02:43:34;9.16;72.09
70089;HTU21D;57460;47.134;19.888;2023-04-03T02:46:00;9.16;72.18
70089;HTU21D;57460;47.134;19.888;2023-04-03T02:48:27;9.14;72.85
70089;HTU21D;57460;47.134;19.888;2023-04-03T02:50:53;9.12;72.44
70089;HTU21D;57460;47.134;19.888;2023-04-03T02:53:19;9.10;72.69
70089;HTU21D;57460;47.134;19.888;2023-04-03T02:55:44;9.15;72.32
70089;HTU21D;57460;47.134;19.888;2023-04-03T02:58:11;9.07;72.78
70089;HTU21D;57460;47.134;19.888;2023-04-03T03:00:37;9.06;73.28
70089;HTU21D;57460;47.134;19.888;2023-04-03T03:03:03;9.22;72.25
70089;HTU21D;57460;47.134;19.888;2023-04-03T03:05:30;9.16;72.21
70089;HTU21D;57460;47.134;19.888;2023-04-03T03:07:56;9.12;72.16
70089;HTU21D;57460;47.134;19.888;2023-04-03T03:10:22;9.03;72.32
70089;HTU21D;57460;47.134;19.888;2023-04-03T03:12:48;9.04;72.15
70089;HTU21D;57460;47.134;19.888;2023-04-03T03:15:14;9.06;71.90
70089;HTU21D;57460;47.134;19.888;2023-04-03T03:17:41;8.97;72.51
70089;HTU21D;57460;47.134;19.888;2023-04-03T03:20:08;8.97;72.62
70089;HTU21D;57460;47.134;19.888;2023-04-03T03:22:34;9.01;72.53
70089;HTU21D;57460;47.134;19.888;2023-04-03T03:25:01;9.04;72.53
70089;HTU21D;57460;47.134;19.888;2023-04-03T03:27:27;9.06;72.59
70089;HTU21D;57460;47.134;19.888;2023-04-03T03:29:53;9.10;72.64
70089;HTU21D;57460;47.134;19.888;2023-04-03T03:32:19;9.14;72.70
70089;HTU21D;57460;47.134;19.888;2023-04-03T03:34:45;9.21;72.35
70089;HTU21D;57460;47.134;19.888;2023-04-03T03:37:11;9.15;72.52
70089;HTU21D;57460;47.134;19.888;2023-04-03T03:39:37;9.18;72.37
70089;HTU21D;57460;47.134;19.888;2023-04-03T03:42:03;9.09;72.87
70089;HTU21D;57460;47.134;19.888;2023-04-03T03:44:29;9.06;73.59
70089;HTU21D;57460;47.134;19.888;2023-04-03T03:46:55;9.09;73.67
70089;HTU21D;57460;47.134;19.888;2023-04-03T03:49:22;9.14;73.57
70089;HTU21D;57460;47.134;19.888;2023-04-03T03:51:47;9.20;73.28
70089;HTU21D;57460;47.134;19.888;2023-04-03T03:54:13;9.20;73.30
70089;HTU21D;57460;47.134;19.888;2023-04-03T03:56:39;9.17;73.54
70089;HTU21D;57460;47.134;19.888;2023-04-03T03:59:05;9.20;73.66
70089;HTU21D;57460;47.134;19.888;2023-04-03T04:01:32;9.26;73.43
70089;HTU21D;57460;47.134;19.888;2023-04-03T04:03:58;9.27;73.19
70089;HTU21D;57460;47.134;19.888;2023-04-03T04:06:24;9.19;73.50
70089;HTU21D;57460;47.134;19.888;2023-04-03T04:08:50;9.19;73.77
70089;HTU21D;57460;47.134;19.888;2023-04-03T04:11:16;9.23;73.75
70089;HTU21D;57460;47.134;19.888;2023-04-03T04:13:42;9.27;73.65
70089;HTU21D;57460;47.134;19.888;2023-04-03T04:16:07;9.32;73.51
70089;HTU21D;57460;47.134;19.888;2023-04-03T04:18:34;9.36;73.49
70089;HTU21D;57460;47.134;19.888;2023-04-03T04:21:00;9.38;73.09
70089;HTU21D;57460;47.134;19.888;2023-04-03T04:23:25;9.36;72.91
70089;HTU21D;57460;47.134;19.888;2023-04-03T04:25:51;9.31;72.96
70089;HTU21D;57460;47.134;19.888;2023-04-03T04:28:18;9.27;72.98
70089;HTU21D;57460;47.134;19.888;2023-04-03T04:30:44;9.27;73.21
70089;HTU21D;57460;47.134;19.888;2023-04-03T04:33:10;9.26;73.09
70089;HTU21D;57460;47.134;19.888;2023-04-03T04:35:36;9.19;73.44
70089;HTU21D;57460;47.134;19.888;2023-04-03T04:38:02;9.14;73.57
70089;HTU21D;57460;47.134;19.888;2023-04-03T04:40:28;9.15;73.61
70089;HTU21D;57460;47.134;19.888;2023-04-03T04:42:54;9.23;73.14
70089;HTU21D;57460;47.134;19.888;2023-04-03T04:45:20;9.19;73.64
70089;HTU21D;57460;47.134;19.888;2023-04-03T04:47:46;9.16;73.61
70089;HTU21D;57460;47.134;19.888;2023-04-03T04:50:12;9.22;73.19
70089;HTU21D;57460;47.134;19.888;2023-04-03T04:52:38;9.21;73.28
70089;HTU21D;57460;47.134;19.888;2023-04-03T04:55:05;9.23;72.83
70089;HTU21D;57460;47.134;19.888;2023-04-03T04:57:31;9.18;73.32
70089;HTU21D;57460;47.134;19.888;2023-04-03T04:59:57;9.23;72.54
70089;HTU21D;57460;47.134;19.888;2023-04-03T05:02:22;9.24;72.19
70089;HTU21D;57460;47.134;19.888;2023-04-03T05:04:48;9.19;72.16
70089;HTU21D;57460;47.134;19.888;2023-04-03T05:07:16;9.08;73.27
70089;HTU21D;57460;47.134;19.888;2023-04-03T05:09:41;9.06;73.02
70089;HTU21D;57460;47.134;19.888;2023-04-03T05:12:08;9.01;72.87
70089;HTU21D;57460;47.134;19.888;2023-04-03T05:14:34;9.02;72.87
70089;HTU21D;57460;47.134;19.888;2023-04-03T05:16:59;9.04;72.38
70089;HTU21D;57460;47.134;19.888;2023-04-03T05:19:25;9.04;72.39
70089;HTU21D;57460;47.134;19.888;2023-04-03T05:21:51;9.04;72.80
70089;HTU21D;57460;47.134;19.888;2023-04-03T05:24:17;9.06;73.12
70089;HTU21D;57460;47.134;19.888;2023-04-03T05:26:43;9.11;72.93
70089;HTU21D;57460;47.134;19.888;2023-04-03T05:29:09;9.20;72.61
70089;HTU21D;57460;47.134;19.888;2023-04-03T05:31:35;9.26;72.04
70089;HTU21D;57460;47.134;19.888;2023-04-03T05:34:01;9.20;73.27
70089;HTU21D;57460;47.134;19.888;2023-04-03T05:36:27;9.20;73.86
70089;HTU21D;57460;47.134;19.888;2023-04-03T05:38:53;9.25;73.64
70089;HTU21D;57460;47.134;19.888;2023-04-03T05:41:19;9.36;72.84
70089;HTU21D;57460;47.134;19.888;2023-04-03T05:43:46;9.44;73.35
70089;HTU21D;57460;47.134;19.888;2023-04-03T05:46:17;9.52;73.18
70089;HTU21D;57460;47.134;19.888;2023-04-03T05:48:44;9.61;72.04
70089;HTU21D;57460;47.134;19.888;2023-04-03T05:51:23;9.64;72.24
70089;HTU21D;57460;47.134;19.888;2023-04-03T05:53:59;9.74;71.26
70089;HTU21D;57460;47.134;19.888;2023-04-03T05:56:26;9.71;71.29
70089;HTU21D;57460;47.134;19.888;2023-04-03T05:58:51;9.82;70.49
70089;HTU21D;57460;47.134;19.888;2023-04-03T06:01:17;9.69;70.72
70089;HTU21D;57460;47.134;19.888;2023-04-03T06:03:43;9.66;70.57
70089;HTU21D;57460;47.134;19.888;2023-04-03T06:06:13;9.57;70.90
70089;HTU21D;57460;47.134;19.888;2023-04-03T06:08:39;9.60;70.92
70089;HTU21D;57460;47.134;19.888;2023-04-03T06:11:05;9.63;70.55
70089;HTU21D;57460;47.134;19.888;2023-04-03T06:13:31;9.54;71.03
70089;HTU21D;57460;47.134;19.888;2023-04-03T06:15:57;9.67;70.69
70089;HTU21D;57460;47.134;19.888;2023-04-03T06:18:23;9.68;70.54
70089;HTU21D;57460;47.134;19.888;2023-04-03T06:20:49;9.78;70.39
70089;HTU21D;57460;47.134;19.888;2023-04-03T06:23:15;9.63;70.32
70089;HTU21D;57460;47.134;19.888;2023-04-03T06:25:41;9.72;70.19
70089;HTU21D;57460;47.134;19.888;2023-04-03T06:28:08;9.77;69.37
70089;HTU21D;57460;47.134;19.888;2023-04-03T06:30:36;9.72;69.20
70089;HTU21D;57460;47.134;19.888;2023-04-03T06:33:02;9.69;68.81
70089;HTU21D;57460;47.134;19.888;2023-04-03T06:35:28;9.53;70.10
70089;HTU21D;57460;47.134;19.888;2023-04-03T06:37:56;9.76;68.96
70089;HTU21D;57460;47.134;19.888;2023-04-03T06:40:24;9.79;68.83
70089;HTU21D;57460;47.134;19.888;2023-04-03T06:42:50;9.77;67.54
70089;HTU21D;57460;47.134;19.888;2023-04-03T06:45:16;9.79;68.12
70089;HTU21D;57460;47.134;19.888;2023-04-03T06:47:42;9.91;67.98
70089;HTU21D;57460;47.134;19.888;2023-04-03T06:50:10;10.01;68.65
70089;HTU21D;57460;47.134;19.888;2023-04-03T06:52:40;10.16;68.26
70089;HTU21D;57460;47.134;19.888;2023-04-03T06:55:06;10.15;68.24
70089;HTU21D;57460;47.134;19.888;2023-04-03T06:57:32;10.19;68.31
70089;HTU21D;57460;47.134;19.888;2023-04-03T06:59:58;10.35;67.42
70089;HTU21D;57460;47.134;19.888;2023-04-03T07:02:23;10.36;66.95
70089;HTU21D;57460;47.134;19.888;2023-04-03T07:04:49;10.44;66.53
70089;HTU21D;57460;47.134;19.888;2023-04-03T07:07:15;10.30;66.70
70089;HTU21D;57460;47.134;19.888;2023-04-03T07:09:42;10.15;67.48
70089;HTU21D;57460;47.134;19.888;2023-04-03T07:12:08;10.05;68.60
70089;HTU21D;57460;47.134;19.888;2023-04-03T07:14:34;10.28;67.17
70089;HTU21D;57460;47.134;19.888;2023-04-03T07:17:00;10.35;66.58
70089;HTU21D;57460;47.134;19.888;2023-04-03T07:19:26;10.41;65.75
70089;HTU21D;57460;47.134;19.888;2023-04-03T07:21:53;10.33;66.15
70089;HTU21D;57460;47.134;19.888;2023-04-03T07:24:20;10.27;66.48
70089;HTU21D;57460;47.134;19.888;2023-04-03T07:26:49;10.29;64.29
70089;HTU21D;57460;47.134;19.888;2023-04-03T07:29:15;10.37;65.53
70089;HTU21D;57460;47.134;19.888;2023-04-03T07:31:41;10.36;61.12
70089;HTU21D;57460;47.134;19.888;2023-04-03T07:34:07;10.43;64.27
70089;HTU21D;57460;47.134;19.888;2023-04-03T07:36:33;10.48;62.69
70089;HTU21D;57460;47.134;19.888;2023-04-03T07:38:59;10.58;63.44
70089;HTU21D;57460;47.134;19.888;2023-04-03T07:41:24;10.70;63.41
70089;HTU21D;57460;47.134;19.888;2023-04-03T07:43:50;10.74;60.04
70089;HTU21D;57460;47.134;19.888;2023-04-03T07:46:17;10.93;64.68
70089;HTU21D;57460;47.134;19.888;2023-04-03T07:48:43;11.02;60.55
70089;HTU21D;57460;47.134;19.888;2023-04-03T07:51:12;11.08;61.25
70089;HTU21D;57460;47.134;19.888;2023-04-03T07:53:41;11.01;60.38
70089;HTU21D;57460;47.134;19.888;2023-04-03T07:56:07;11.07;61.51
70089;HTU21D;57460;47.134;19.888;2023-04-03T07:58:33;11.04;59.93
70089;HTU21D;57460;47.134;19.888;2023-04-03T08:00:59;11.02;60.42
70089;HTU21D;57460;47.134;19.888;2023-04-03T08:03:25;11.08;54.81
70089;HTU21D;57460;47.134;19.888;2023-04-03T08:05:51;11.02;56.38
70089;HTU21D;57460;47.134;19.888;2023-04-03T08:08:22;10.95;61.25
70089;HTU21D;57460;47.134;19.888;2023-04-03T08:10:53;11.13;59.48
70089;HTU21D;57460;47.134;19.888;2023-04-03T08:13:19;11.32;60.71
70089;HTU21D;57460;47.134;19.888;2023-04-03T08:15:45;11.36;58.74
70089;HTU21D;57460;47.134;19.888;2023-04-03T08:18:12;11.55;60.79
70089;HTU21D;57460;47.134;19.888;2023-04-03T08:20:39;11.61;57.07
70089;HTU21D;57460;47.134;19.888;2023-04-03T08:23:07;11.67;60.56
70089;HTU21D;57460;47.134;19.888;2023-04-03T08:25:37;11.68;59.35
70089;HTU21D;57460;47.134;19.888;2023-04-03T08:28:03;11.85;58.93
70089;HTU21D;57460;47.134;19.888;2023-04-03T08:30:29;11.97;54.91
70089;HTU21D;57460;47.134;19.888;2023-04-03T08:32:55;12.07;55.62
70089;HTU21D;57460;47.134;19.888;2023-04-03T08:35:20;12.10;55.52
70089;HTU21D;57460;47.134;19.888;2023-04-03T08:37:46;11.98;53.61
70089;HTU21D;57460;47.134;19.888;2023-04-03T08:40:15;11.72;55.35
70089;HTU21D;57460;47.134;19.888;2023-04-03T08:48:18;12.82;55.45
70089;HTU21D;57460;47.134;19.888;2023-04-03T08:50:56;12.87;55.05
70089;HTU21D;57460;47.134;19.888;2023-04-03T08:53:30;12.66;51.29
70089;HTU21D;57460;47.134;19.888;2023-04-03T08:55:58;12.69;51.95
70089;HTU21D;57460;47.134;19.888;2023-04-03T08:58:27;12.51;54.07
70089;HTU21D;57460;47.134;19.888;2023-04-03T09:01:06;12.64;54.19
70089;HTU21D;57460;47.134;19.888;2023-04-03T09:03:38;12.86;52.38
70089;HTU21D;57460;47.134;19.888;2023-04-03T09:06:12;12.96;52.99
70089;HTU21D;57460;47.134;19.888;2023-04-03T09:11:20;13.00;51.69
70089;HTU21D;57460;47.134;19.888;2023-04-03T09:14:01;13.00;50.11
70089;HTU21D;57460;47.134;19.888;2023-04-03T09:16:56;13.06;50.92
70089;HTU21D;57460;47.134;19.888;2023-04-03T09:22:25;13.19;53.80
70089;HTU21D;57460;47.134;19.888;2023-04-03T09:27:26;13.27;52.55
70089;HTU21D;57460;47.134;19.888;2023-04-03T09:29:55;13.23;52.32
70089;HTU21D;57460;47.134;19.888;2023-04-03T09:34:53;13.23;51.64
70089;HTU21D;57460;47.134;19.888;2023-04-03T09:37:39;13.15;51.79
70089;HTU21D;57460;47.134;19.888;2023-04-03T09:40:11;12.94;53.60
70089;HTU21D;57460;47.134;19.888;2023-04-03T09:43:00;13.00;53.10
70089;HTU21D;57460;47.134;19.888;2023-04-03T09:45:29;12.95;52.60
70089;HTU21D;57460;47.134;19.888;2023-04-03T09:48:20;12.48;51.22
70089;HTU21D;57460;47.134;19.888;2023-04-03T09:50:55;12.34;55.39
70089;HTU21D;57460;47.134;19.888;2023-04-03T09:53:40;12.60;57.17
70089;HTU21D;57460;47.134;19.888;2023-04-03T09:58:46;13.04;53.74
70089;HTU21D;57460;47.134;19.888;2023-04-03T10:01:28;13.18;53.92
70089;HTU21D;57460;47.134;19.888;2023-04-03T10:06:35;13.18;53.43
70089;HTU21D;57460;47.134;19.888;2023-04-03T10:12:07;13.54;53.42
70089;HTU21D;57460;47.134;19.888;2023-04-03T10:15:01;13.81;51.97
70089;HTU21D;57460;47.134;19.888;2023-04-03T10:18:04;14.01;43.83
70089;HTU21D;57460;47.134;19.888;2023-04-03T10:20:39;14.13;49.92
70089;HTU21D;57460;47.134;19.888;2023-04-03T10:23:26;14.34;50.72
70089;HTU21D;57460;47.134;19.888;2023-04-03T10:28:57;14.97;46.39
70089;HTU21D;57460;47.134;19.888;2023-04-03T10:34:18;14.06;48.09
70089;HTU21D;57460;47.134;19.888;2023-04-03T10:40:01;14.95;48.37
70089;HTU21D;57460;47.134;19.888;2023-04-03T10:42:58;15.26;46.96
70089;HTU21D;57460;47.134;19.888;2023-04-03T10:46:07;15.62;44.22
70089;HTU21D;57460;47.134;19.888;2023-04-03T10:51:15;14.92;44.12
70089;HTU21D;57460;47.134;19.888;2023-04-03T10:58:57;15.13;44.90
70089;HTU21D;57460;47.134;19.888;2023-04-03T11:01:31;15.12;45.11
70089;HTU21D;57460;47.134;19.888;2023-04-03T11:04:00;15.18;44.41
70089;HTU21D;57460;47.134;19.888;2023-04-03T11:06:39;15.23;43.35
70089;HTU21D;57460;47.134;19.888;2023-04-03T11:12:02;15.04;43.25
70089;HTU21D;57460;47.134;19.888;2023-04-03T11:14:36;15.03;43.77
70089;HTU21D;57460;47.134;19.888;2023-04-03T11:19:44;15.09;43.27
70089;HTU21D;57460;47.134;19.888;2023-04-03T11:24:42;15.29;44.66
70089;HTU21D;57460;47.134;19.888;2023-04-03T11:27:18;15.49;42.22
70089;HTU21D;57460;47.134;19.888;2023-04-03T11:29:50;15.87;43.10
70089;HTU21D;57460;47.134;19.888;2023-04-03T11:34:56;15.70;41.97
70089;HTU21D;57460;47.134;19.888;2023-04-03T11:37:34;15.75;41.73
70089;HTU21D;57460;47.134;19.888;2023-04-03T11:40:21;15.57;42.69
70089;HTU21D;57460;47.134;19.888;2023-04-03T11:43:03;15.84;42.67
70089;HTU21D;57460;47.134;19.888;2023-04-03T11:50:45;15.71;38.80
70089;HTU21D;57460;47.134;19.888;2023-04-03T12:05:54;14.79;42.65
70089;HTU21D;57460;47.134;19.888;2023-04-03T12:08:47;15.31;41.44
70089;HTU21D;57460;47.134;19.888;2023-04-03T12:11:30;15.55;41.82
70089;HTU21D;57460;47.134;19.888;2023-04-03T12:16:28;15.81;42.31
70089;HTU21D;57460;47.134;19.888;2023-04-03T12:24:29;15.45;42.21
70089;HTU21D;57460;47.134;19.888;2023-04-03T12:38:37;14.12;40.36
70089;HTU21D;57460;47.134;19.888;2023-04-03T12:46:48;13.49;45.09
70089;HTU21D;57460;47.134;19.888;2023-04-03T12:49:26;13.44;45.95
70089;HTU21D;57460;47.134;19.888;2023-04-03T12:51:56;13.65;44.16
70089;HTU21D;57460;47.134;19.888;2023-04-03T12:54:34;13.47;44.70
70089;HTU21D;57460;47.134;19.888;2023-04-03T12:59:36;13.47;45.04
70089;HTU21D;57460;47.134;19.888;2023-04-03T13:02:02;13.37;44.16
70089;HTU21D;57460;47.134;19.888;2023-04-03T13:04:31;13.41;44.28
70089;HTU21D;57460;47.134;19.888;2023-04-03T13:06:57;13.40;44.13
70089;HTU21D;57460;47.134;19.888;2023-04-03T13:09:30;13.46;44.79
70089;HTU21D;57460;47.134;19.888;2023-04-03T13:12:13;13.47;42.39
70089;HTU21D;57460;47.134;19.888;2023-04-03T13:14:40;13.45;43.58
70089;HTU21D;57460;47.134;19.888;2023-04-03T13:17:14;13.46;44.74
70089;HTU21D;57460;47.134;19.888;2023-04-03T13:19:41;13.26;43.67
70089;HTU21D;57460;47.134;19.888;2023-04-03T13:22:31;13.16;44.24
70089;HTU21D;57460;47.134;19.888;2023-04-03T13:25:08;12.92;44.89
70089;HTU21D;57460;47.134;19.888;2023-04-03T13:27:36;12.76;44.88
70089;HTU21D;57460;47.134;19.888;2023-04-03T13:30:05;12.61;44.79
70089;HTU21D;57460;47.134;19.888;2023-04-03T13:32:32;12.57;45.39
70089;HTU21D;57460;47.134;19.888;2023-04-03T13:34:58;12.38;45.48
70089;HTU21D;57460;47.134;19.888;2023-04-03T13:37:30;12.19;45.76
70089;HTU21D;57460;47.134;19.888;2023-04-03T13:40:12;12.11;46.12
70089;HTU21D;57460;47.134;19.888;2023-04-03T13:42:40;12.05;47.19
70089;HTU21D;57460;47.134;19.888;2023-04-03T13:47:43;11.96;46.54
70089;HTU21D;57460;47.134;19.888;2023-04-03T13:50:14;11.97;46.19
70089;HTU21D;57460;47.134;19.888;2023-04-03T13:52:52;11.90;46.09
70089;HTU21D;57460;47.134;19.888;2023-04-03T13:55:25;11.98;47.52
70089;HTU21D;57460;47.134;19.888;2023-04-03T13:58:00;11.94;46.32
70089;HTU21D;57460;47.134;19.888;2023-04-03T14:03:12;11.96;46.36
70089;HTU21D;57460;47.134;19.888;2023-04-03T14:05:38;11.88;44.75
70089;HTU21D;57460;47.134;19.888;2023-04-03T14:08:04;11.84;47.21
70089;HTU21D;57460;47.134;19.888;2023-04-03T14:10:30;11.84;46.66
70089;HTU21D;57460;47.134;19.888;2023-04-03T14:12:56;11.82;46.62
70089;HTU21D;57460;47.134;19.888;2023-04-03T14:15:26;11.90;45.91
70089;HTU21D;57460;47.134;19.888;2023-04-03T14:17:53;11.86;47.31
70089;HTU21D;57460;47.134;19.888;2023-04-03T14:20:23;11.86;44.99
70089;HTU21D;57460;47.134;19.888;2023-04-03T14:22:53;11.86;46.25
70089;HTU21D;57460;47.134;19.888;2023-04-03T14:25:21;11.85;47.05
70089;HTU21D;57460;47.134;19.888;2023-04-03T14:27:51;11.92;46.83
70089;HTU21D;57460;47.134;19.888;2023-04-03T14:30:30;11.98;45.85
70089;HTU21D;57460;47.134;19.888;2023-04-03T14:32:57;12.10;45.22
70089;HTU21D;57460;47.134;19.888;2023-04-03T14:35:25;12.03;46.37
70089;HTU21D;57460;47.134;19.888;2023-04-03T14:37:52;11.91;46.75
70089;HTU21D;57460;47.134;19.888;2023-04-03T14:40:23;11.99;47.22
70089;HTU21D;57460;47.134;19.888;2023-04-03T14:42:49;12.00;44.59
70089;HTU21D;57460;47.134;19.888;2023-04-03T14:45:16;12.13;46.20
70089;HTU21D;57460;47.134;19.888;2023-04-03T14:47:48;12.08;44.40
70089;HTU21D;57460;47.134;19.888;2023-04-03T14:50:17;12.03;45.57
70089;HTU21D;57460;47.134;19.888;2023-04-03T14:52:47;12.06;45.79
70089;HTU21D;57460;47.134;19.888;2023-04-03T14:55:19;12.11;45.41
70089;HTU21D;57460;47.134;19.888;2023-04-03T14:57:45;12.02;44.84
70089;HTU21D;57460;47.134;19.888;2023-04-03T15:00:14;11.98;44.88
70089;HTU21D;57460;47.134;19.888;2023-04-03T15:02:41;11.85;43.32
70089;HTU21D;57460;47.134;19.888;2023-04-03T15:05:09;11.66;44.70
70089;HTU21D;57460;47.134;19.888;2023-04-03T15:07:52;11.59;45.16
70089;HTU21D;57460;47.134;19.888;2023-04-03T15:10:24;11.45;44.49
70089;HTU21D;57460;47.134;19.888;2023-04-03T15:12:51;11.48;45.99
70089;HTU21D;57460;47.134;19.888;2023-04-03T15:15:19;11.55;44.88
70089;HTU21D;57460;47.134;19.888;2023-04-03T15:17:50;11.30;45.18
70089;HTU21D;57460;47.134;19.888;2023-04-03T15:20:20;11.30;45.27
70089;HTU21D;57460;47.134;19.888;2023-04-03T15:22:47;11.27;46.06
70089;HTU21D;57460;47.134;19.888;2023-04-03T15:25:13;11.23;46.38
70089;HTU21D;57460;47.134;19.888;2023-04-03T15:27:39;11.16;47.05
70089;HTU21D;57460;47.134;19.888;2023-04-03T15:30:14;11.16;46.22
70089;HTU21D;57460;47.134;19.888;2023-04-03T15:32:40;11.14;46.44
70089;HTU21D;57460;47.134;19.888;2023-04-03T15:35:06;11.07;47.17
70089;HTU21D;57460;47.134;19.888;2023-04-03T15:37:32;11.02;46.83
70089;HTU21D;57460;47.134;19.888;2023-04-03T15:39:58;11.00;45.02
70089;HTU21D;57460;47.134;19.888;2023-04-03T15:42:24;10.93;45.84
70089;HTU21D;57460;47.134;19.888;2023-04-03T15:44:50;10.80;46.17
70089;HTU21D;57460;47.134;19.888;2023-04-03T15:47:16;10.69;46.70
70089;HTU21D;57460;47.134;19.888;2023-04-03T15:49:42;10.58;45.55
70089;HTU21D;57460;47.134;19.888;2023-04-03T15:52:08;10.54;47.02
70089;HTU21D;57460;47.134;19.888;2023-04-03T15:54:34;10.50;46.58
70089;HTU21D;57460;47.134;19.888;2023-04-03T15:57:00;10.43;46.68
70089;HTU21D;57460;47.134;19.888;2023-04-03T15:59:25;10.36;46.22
70089;HTU21D;57460;47.134;19.888;2023-04-03T16:01:52;10.13;46.98
70089;HTU21D;57460;47.134;19.888;2023-04-03T16:04:19;10.06;46.41
70089;HTU21D;57460;47.134;19.888;2023-04-03T16:06:46;9.95;47.39
70089;HTU21D;57460;47.134;19.888;2023-04-03T16:09:12;9.90;47.99
70089;HTU21D;57460;47.134;19.888;2023-04-03T16:11:38;9.88;46.77
70089;HTU21D;57460;47.134;19.888;2023-04-03T16:14:06;9.75;47.49
70089;HTU21D;57460;47.134;19.888;2023-04-03T16:16:32;9.66;45.90
70089;HTU21D;57460;47.134;19.888;2023-04-03T16:18:58;9.61;47.32
70089;HTU21D;57460;47.134;19.888;2023-04-03T16:21:26;9.56;47.72
70089;HTU21D;57460;47.134;19.888;2023-04-03T16:23:52;9.53;48.11
70089;HTU21D;57460;47.134;19.888;2023-04-03T16:26:18;9.47;48.47
70089;HTU21D;57460;47.134;19.888;2023-04-03T16:28:44;9.40;48.67
70089;HTU21D;57460;47.134;19.888;2023-04-03T16:31:13;9.25;47.48
70089;HTU21D;57460;47.134;19.888;2023-04-03T16:33:40;9.25;47.41
70089;HTU21D;57460;47.134;19.888;2023-04-03T16:36:06;9.17;48.22
70089;HTU21D;57460;47.134;19.888;2023-04-03T16:38:32;9.07;48.34
70089;HTU21D;57460;47.134;19.888;2023-04-03T16:40:58;8.97;48.44
70089;HTU21D;57460;47.134;19.888;2023-04-03T16:43:26;8.86;49.51
70089;HTU21D;57460;47.134;19.888;2023-04-03T16:45:51;8.82;48.99
70089;HTU21D;57460;47.134;19.888;2023-04-03T16:48:17;8.65;49.10
70089;HTU21D;57460;47.134;19.888;2023-04-03T16:50:47;8.56;48.64
70089;HTU21D;57460;47.134;19.888;2023-04-03T16:53:23;8.49;49.47
70089;HTU21D;57460;47.134;19.888;2023-04-03T16:55:50;8.41;49.63
70089;HTU21D;57460;47.134;19.888;2023-04-03T16:58:16;8.34;49.77
70089;HTU21D;57460;47.134;19.888;2023-04-03T17:00:43;8.22;49.98
70089;HTU21D;57460;47.134;19.888;2023-04-03T17:03:09;8.14;49.91
70089;HTU21D;57460;47.134;19.888;2023-04-03T17:05:35;8.01;51.01
70089;HTU21D;57460;47.134;19.888;2023-04-03T17:08:01;7.98;51.07